Time;durP1;ratioP1;P1;durP2;ratioP2;P2;SDS_P1;SDS_P2;PMS_P1;PMS_P2;Temp;Humidity;BMP_temperature;BMP_pressure;BME280_temperature;BME280_humidity;BME280_pressure;Samples;Min_cycle;Max_cycle;Signal;HPM_P1;HPM_P2
2023/03/29 00:02:00;;;;;;;7.97;3.40;;;5.10;99.90;;;;;;5047354;28;20052;-66
2023/03/29 00:04:28;;;;;;;10.02;3.50;;;5.00;99.90;;;;;;5047096;28;20443;-65
2023/03/29 00:06:54;;;;;;;9.77;3.80;;;5.00;99.90;;;;;;5065862;28;20040;-64
2023/03/29 00:09:21;;;;;;;7.38;3.55;;;5.00;99.90;;;;;;5063658;28;20238;-67
2023/03/29 00:11:47;;;;;;;10.10;3.85;;;5.00;99.90;;;;;;5064079;28;20119;-65
2023/03/29 00:14:13;;;;;;;8.38;3.40;;;5.00;99.90;;;;;;5063257;28;20123;-67
2023/03/29 00:16:39;;;;;;;11.48;3.55;;;5.00;99.90;;;;;;5047377;28;20055;-67
2023/03/29 00:19:04;;;;;;;8.98;3.53;;;5.00;99.90;;;;;;5047132;28;20044;-66
2023/03/29 00:21:30;;;;;;;7.10;3.35;;;5.00;99.90;;;;;;5047416;28;20043;-66
2023/03/29 00:23:57;;;;;;;9.27;3.50;;;5.00;99.90;;;;;;5080412;28;20515;-65
2023/03/29 00:26:24;;;;;;;7.50;3.47;;;5.00;99.90;;;;;;5065051;28;20063;-64
2023/03/29 00:28:49;;;;;;;6.47;3.20;;;5.00;99.90;;;;;;5083923;28;20044;-67
2023/03/29 00:31:17;;;;;;;10.40;4.00;;;5.00;99.90;;;;;;5067811;28;20105;-64
2023/03/29 00:33:46;;;;;;;11.95;3.38;;;5.00;99.90;;;;;;5047471;28;20601;-65
2023/03/29 00:36:13;;;;;;;10.35;3.55;;;5.00;99.90;;;;;;5047041;28;20052;-66
2023/03/29 00:38:39;;;;;;;9.98;3.90;;;5.00;99.90;;;;;;5063814;28;20048;-64
2023/03/29 00:41:07;;;;;;;8.45;3.33;;;5.00;99.90;;;;;;5062820;28;20040;-64
2023/03/29 00:43:56;;;;;;;11.73;3.60;;;5.00;99.90;;;;;;5067157;28;20121;-63
2023/03/29 00:46:23;;;;;;;9.43;3.88;;;5.00;99.90;;;;;;5062083;28;20496;-65
2023/03/29 00:48:55;;;;;;;8.73;3.55;;;5.00;99.90;;;;;;5063519;28;20392;-66
2023/03/29 00:51:25;;;;;;;10.63;3.85;;;5.00;99.90;;;;;;5049568;28;20372;-66
2023/03/29 00:53:56;;;;;;;10.00;3.83;;;5.00;99.90;;;;;;5079800;28;20102;-64
2023/03/29 00:56:36;;;;;;;9.30;3.53;;;5.00;99.90;;;;;;5081654;28;20117;-64
2023/03/29 00:59:06;;;;;;;8.10;3.65;;;5.00;99.90;;;;;;5083638;28;20054;-65
2023/03/29 01:01:56;;;;;;;9.68;4.05;;;5.00;99.90;;;;;;5066996;28;20302;-66
2023/03/29 01:04:24;;;;;;;8.48;3.67;;;5.00;99.90;;;;;;5032605;28;20036;-64
2023/03/29 01:07:12;;;;;;;9.77;4.22;;;5.00;99.90;;;;;;5046689;28;20086;-66
2023/03/29 01:09:41;;;;;;;11.43;4.00;;;5.00;99.90;;;;;;5053326;28;20052;-67
2023/03/29 01:12:15;;;;;;;9.82;4.05;;;5.10;99.90;;;;;;5053918;28;20067;-64
2023/03/29 01:14:53;;;;;;;9.32;4.00;;;5.10;99.90;;;;;;5063520;28;20566;-64
2023/03/29 01:17:24;;;;;;;9.82;4.35;;;5.10;99.90;;;;;;5080042;28;20054;-64
2023/03/29 01:19:59;;;;;;;7.65;4.07;;;5.00;99.90;;;;;;5053542;28;20044;-63
2023/03/29 01:22:50;;;;;;;9.10;4.63;;;5.10;99.90;;;;;;5046274;28;20127;-66
2023/03/29 01:25:25;;;;;;;8.43;4.30;;;5.10;99.90;;;;;;5062619;28;20050;-63
2023/03/29 01:28:00;;;;;;;14.93;4.80;;;5.10;99.90;;;;;;5067587;28;20167;-65
2023/03/29 01:30:48;;;;;;;11.00;4.53;;;5.10;99.90;;;;;;5058380;28;20523;-67
2023/03/29 01:33:23;;;;;;;12.55;4.30;;;5.10;99.90;;;;;;5074318;28;20059;-67
2023/03/29 01:36:39;;;;;;;12.07;4.78;;;5.10;99.90;;;;;;5064013;28;20040;-68
2023/03/29 01:39:06;;;;;;;12.40;4.90;;;5.10;99.90;;;;;;5048737;28;20146;-64
2023/03/29 01:41:49;;;;;;;11.32;5.07;;;5.10;99.90;;;;;;5066100;28;20077;-64
2023/03/29 01:44:25;;;;;;;8.95;4.35;;;5.10;99.90;;;;;;5049842;28;20087;-64
2023/03/29 01:47:01;;;;;;;9.38;4.75;;;5.10;99.90;;;;;;5066900;28;20036;-64
2023/03/29 01:49:41;;;;;;;13.60;5.53;;;5.10;99.90;;;;;;5049650;28;20040;-64
2023/03/29 01:52:20;;;;;;;13.75;5.43;;;5.10;99.90;;;;;;5066282;28;20123;-65
2023/03/29 01:54:59;;;;;;;14.20;6.22;;;5.10;99.90;;;;;;5049671;28;20206;-65
2023/03/29 01:57:25;;;;;;;13.75;5.40;;;5.10;99.90;;;;;;5049927;28;20500;-64
2023/03/29 01:59:53;;;;;;;11.88;4.90;;;5.10;99.90;;;;;;5066061;28;20445;-64
2023/03/29 02:02:22;;;;;;;12.85;5.32;;;5.10;99.90;;;;;;5066772;28;20127;-65
2023/03/29 02:04:51;;;;;;;13.70;5.30;;;5.10;99.90;;;;;;5072336;28;20406;-65
2023/03/29 02:07:22;;;;;;;13.10;5.90;;;5.10;99.90;;;;;;5069619;28;20036;-66
2023/03/29 02:09:51;;;;;;;15.32;6.28;;;5.10;99.90;;;;;;5063581;28;20442;-64
2023/03/29 02:12:18;;;;;;;14.88;6.45;;;5.10;99.90;;;;;;5066179;28;20047;-66
2023/03/29 02:14:44;;;;;;;11.23;5.82;;;5.10;99.90;;;;;;5049138;28;20145;-66
2023/03/29 02:17:24;;;;;;;12.13;5.90;;;5.00;99.90;;;;;;5049547;28;20079;-66
2023/03/29 02:20:13;;;;;;;14.32;5.72;;;5.10;99.90;;;;;;5049091;28;20044;-67
2023/03/29 02:23:08;;;;;;;11.68;5.80;;;5.00;99.90;;;;;;5066240;28;20033;-67
2023/03/29 02:25:36;;;;;;;;;;;5.00;99.90;;;;;;5049167;28;20555;-66
2023/03/29 02:28:02;;;;;;;12.85;5.50;;;5.00;99.90;;;;;;5065991;28;19923;-65
2023/03/29 02:30:38;;;;;;;12.88;5.78;;;5.00;99.90;;;;;;5049106;28;20048;-65
2023/03/29 02:33:18;;;;;;;14.23;5.38;;;5.00;99.90;;;;;;5082770;28;20045;-64
2023/03/29 02:36:16;;;;;;;15.35;6.03;;;5.00;99.90;;;;;;5081933;28;20052;-68
2023/03/29 02:38:43;;;;;;;12.40;5.25;;;5.00;99.90;;;;;;5047238;28;20048;-66
2023/03/29 02:41:09;;;;;;;12.52;6.28;;;5.00;99.90;;;;;;5068178;28;20040;-65
2023/03/29 02:43:36;;;;;;;11.20;5.22;;;5.00;99.90;;;;;;5065464;28;20047;-64
2023/03/29 02:46:05;;;;;;;14.88;7.05;;;5.00;99.90;;;;;;5048732;28;20040;-64
2023/03/29 02:48:32;;;;;;;15.77;6.43;;;5.00;99.90;;;;;;5064631;28;20036;-64
2023/03/29 02:51:04;;;;;;;13.77;6.28;;;5.00;99.90;;;;;;5065006;28;20077;-65
2023/03/29 02:53:37;;;;;;;11.20;5.65;;;5.00;99.90;;;;;;5048903;28;20119;-65
2023/03/29 02:56:04;;;;;;;13.40;6.28;;;5.00;99.90;;;;;;5064643;28;20140;-64
2023/03/29 02:58:30;;;;;;;12.63;5.90;;;5.00;99.90;;;;;;5066388;28;20048;-65
2023/03/29 03:00:59;;;;;;;12.30;6.22;;;5.10;99.90;;;;;;5065273;28;20510;-64
2023/03/29 03:03:26;;;;;;;13.88;6.40;;;5.00;99.90;;;;;;5048184;28;20051;-65
2023/03/29 03:05:52;;;;;;;14.32;6.82;;;5.10;99.90;;;;;;5084618;28;20127;-64
2023/03/29 03:08:18;;;;;;;14.35;6.80;;;5.10;99.90;;;;;;5085395;28;20051;-65
2023/03/29 03:10:44;;;;;;;15.45;5.85;;;5.00;99.90;;;;;;5066411;28;20040;-67
2023/03/29 03:13:11;;;;;;;10.45;6.22;;;5.10;99.90;;;;;;5085581;28;20491;-65
2023/03/29 03:15:41;;;;;;;13.88;6.70;;;5.00;99.90;;;;;;5066820;28;20098;-65
2023/03/29 03:18:08;;;;;;;13.65;6.60;;;5.00;99.90;;;;;;5068831;28;20135;-64
2023/03/29 03:20:34;;;;;;;14.07;6.20;;;5.10;99.90;;;;;;5065472;28;20080;-66
2023/03/29 03:23:02;;;;;;;14.82;6.72;;;5.10;99.90;;;;;;5065215;28;20598;-65
2023/03/29 03:25:28;;;;;;;16.27;7.30;;;5.10;99.90;;;;;;5064058;28;20052;-64
2023/03/29 03:27:55;;;;;;;14.82;7.13;;;5.10;99.90;;;;;;5047911;28;20123;-65
2023/03/29 03:30:20;;;;;;;18.55;8.38;;;5.10;99.90;;;;;;5048128;28;20036;-65
2023/03/29 03:32:48;;;;;;;18.95;8.23;;;5.10;99.90;;;;;;5065995;28;20032;-65
2023/03/29 03:35:15;;;;;;;13.20;7.32;;;5.10;99.90;;;;;;5047686;28;20051;-65
2023/03/29 03:37:41;;;;;;;16.88;8.57;;;5.10;99.90;;;;;;5064282;28;20044;-65
2023/03/29 03:40:08;;;;;;;14.73;7.80;;;5.10;99.90;;;;;;5063931;28;20051;-66
2023/03/29 03:42:33;;;;;;;16.63;8.52;;;5.10;99.90;;;;;;5047674;28;20044;-64
2023/03/29 03:44:59;;;;;;;16.95;7.93;;;5.10;99.90;;;;;;5064000;28;20447;-65
2023/03/29 03:47:24;;;;;;;16.17;8.63;;;5.10;99.90;;;;;;5081375;28;20040;-66
2023/03/29 03:49:50;;;;;;;18.60;8.73;;;5.10;99.90;;;;;;5064033;28;20510;-64
2023/03/29 03:52:17;;;;;;;17.73;8.05;;;5.10;99.90;;;;;;5047802;28;20046;-66
2023/03/29 03:54:47;;;;;;;21.85;9.75;;;5.10;99.90;;;;;;5047142;28;20041;-66
2023/03/29 03:57:13;;;;;;;18.77;9.15;;;5.10;99.90;;;;;;5047616;28;20052;-66
2023/03/29 03:59:38;;;;;;;18.52;9.80;;;5.10;99.90;;;;;;5030737;28;20036;-65
2023/03/29 04:02:05;;;;;;;19.35;9.00;;;5.20;99.90;;;;;;5084178;28;20058;-65
2023/03/29 04:04:31;;;;;;;17.15;9.93;;;5.10;99.90;;;;;;5063257;28;20396;-65
2023/03/29 04:07:03;;;;;;;24.10;11.13;;;5.20;99.90;;;;;;5085324;28;20050;-67
2023/03/29 04:09:30;;;;;;;20.25;9.63;;;5.20;99.90;;;;;;5081292;28;20566;-66
2023/03/29 04:11:56;;;;;;;21.60;10.77;;;5.20;99.90;;;;;;5063896;28;20116;-67
2023/03/29 04:14:22;;;;;;;17.85;9.73;;;5.20;99.90;;;;;;5047700;28;20037;-66
2023/03/29 04:16:48;;;;;;;19.42;9.43;;;5.20;99.90;;;;;;5063812;28;20455;-65
2023/03/29 04:19:14;;;;;;;17.67;9.27;;;5.30;99.90;;;;;;5063980;28;20127;-65
2023/03/29 04:21:41;;;;;;;21.48;10.15;;;5.30;99.90;;;;;;5064722;28;20182;-65
2023/03/29 04:24:08;;;;;;;21.35;10.60;;;5.30;99.90;;;;;;5063889;28;20051;-65
2023/03/29 04:26:33;;;;;;;20.25;9.95;;;5.30;99.90;;;;;;5062895;28;20082;-66
2023/03/29 04:28:59;;;;;;;16.92;10.15;;;5.30;99.90;;;;;;5067430;28;20503;-65
2023/03/29 04:31:25;;;;;;;24.40;10.75;;;5.30;99.90;;;;;;5069099;28;20033;-65
2023/03/29 04:33:51;;;;;;;16.35;9.60;;;5.30;99.90;;;;;;5063769;28;20039;-66
2023/03/29 04:36:17;;;;;;;20.85;10.73;;;5.30;99.90;;;;;;5063308;28;20454;-65
2023/03/29 04:38:42;;;;;;;18.25;9.93;;;5.30;99.90;;;;;;5080748;28;20045;-65
2023/03/29 04:41:08;;;;;;;23.48;11.07;;;5.40;99.90;;;;;;5063411;28;20131;-66
2023/03/29 04:43:35;;;;;;;20.38;10.25;;;5.30;99.90;;;;;;5063473;28;20040;-66
2023/03/29 04:46:02;;;;;;;20.50;11.02;;;5.40;99.90;;;;;;5063414;28;20407;-65
2023/03/29 04:48:30;;;;;;;22.35;11.85;;;5.40;99.90;;;;;;5046974;28;20730;-66
2023/03/29 04:50:56;;;;;;;19.75;11.02;;;5.30;99.90;;;;;;5046645;28;20090;-65
2023/03/29 04:53:22;;;;;;;19.33;11.55;;;5.40;99.90;;;;;;5063731;28;20508;-64
2023/03/29 04:55:48;;;;;;;20.50;10.85;;;5.40;99.90;;;;;;5072941;28;20048;-64
2023/03/29 04:58:13;;;;;;;28.58;11.68;;;5.40;99.90;;;;;;5063422;28;20048;-65
2023/03/29 05:00:39;;;;;;;22.67;11.23;;;5.40;99.90;;;;;;5071550;28;20123;-66
2023/03/29 05:03:06;;;;;;;20.60;10.70;;;5.40;99.90;;;;;;5066743;28;20044;-64
2023/03/29 05:05:32;;;;;;;21.63;11.23;;;5.40;99.90;;;;;;5065016;28;20049;-64
2023/03/29 05:07:57;;;;;;;20.65;12.25;;;5.40;99.90;;;;;;5063413;28;20029;-63
2023/03/29 05:10:23;;;;;;;17.77;10.48;;;5.40;99.90;;;;;;5063603;28;20270;-65
2023/03/29 05:12:52;;;;;;;22.63;11.68;;;5.40;99.90;;;;;;5050419;28;20090;-64
2023/03/29 05:15:19;;;;;;;22.50;11.98;;;5.40;99.90;;;;;;5068563;28;20044;-65
2023/03/29 05:17:46;;;;;;;19.23;11.32;;;5.40;99.90;;;;;;5067148;28;20094;-65
2023/03/29 05:20:12;;;;;;;23.83;12.13;;;5.40;99.90;;;;;;5066782;28;20040;-64
2023/03/29 05:22:39;;;;;;;19.83;11.15;;;5.40;99.90;;;;;;5067120;28;20059;-64
2023/03/29 05:25:05;;;;;;;20.27;11.13;;;5.40;99.90;;;;;;5066339;28;20033;-64
2023/03/29 05:27:32;;;;;;;21.00;11.35;;;5.40;99.90;;;;;;5066810;28;20044;-64
2023/03/29 05:29:59;;;;;;;21.67;11.07;;;5.40;99.90;;;;;;5076448;28;20649;-64
2023/03/29 05:32:25;;;;;;;20.60;11.35;;;5.50;99.90;;;;;;5066769;28;20044;-65
2023/03/29 05:34:51;;;;;;;18.63;11.10;;;5.40;99.90;;;;;;5066481;28;20415;-64
2023/03/29 05:37:17;;;;;;;21.63;11.50;;;5.50;99.90;;;;;;5049312;28;20044;-64
2023/03/29 05:39:44;;;;;;;20.75;10.52;;;5.50;99.90;;;;;;5049374;28;20048;-65
2023/03/29 05:42:12;;;;;;;19.08;11.55;;;5.50;99.90;;;;;;5049503;28;20048;-66
2023/03/29 05:44:39;;;;;;;22.98;10.80;;;5.50;99.90;;;;;;5065949;28;20048;-65
2023/03/29 05:47:05;;;;;;;21.33;11.30;;;5.60;99.90;;;;;;5085866;28;20028;-65
2023/03/29 05:49:31;;;;;;;22.15;11.50;;;5.50;99.90;;;;;;5065111;28;20235;-65
2023/03/29 05:51:58;;;;;;;20.35;11.23;;;5.60;99.90;;;;;;5069594;28;20494;-64
2023/03/29 05:54:24;;;;;;;20.63;11.65;;;5.60;99.90;;;;;;5084387;28;20044;-64
2023/03/29 05:56:51;;;;;;;21.17;11.43;;;5.60;99.90;;;;;;5068554;28;20096;-65
2023/03/29 05:59:18;;;;;;;25.27;11.77;;;5.60;99.90;;;;;;5086377;28;20275;-63
2023/03/29 06:01:46;;;;;;;25.38;12.35;;;5.60;99.90;;;;;;5060192;28;20035;-64
2023/03/29 06:04:14;;;;;;;22.15;12.35;;;5.60;99.90;;;;;;5073155;28;20455;-65
2023/03/29 06:06:40;;;;;;;21.65;11.73;;;5.60;99.90;;;;;;5069144;28;20075;-63
2023/03/29 06:09:07;;;;;;;25.17;12.77;;;5.60;99.90;;;;;;5083833;28;20434;-64
2023/03/29 06:11:33;;;;;;;22.88;12.25;;;5.60;99.90;;;;;;5082222;28;20603;-64
2023/03/29 06:13:59;;;;;;;25.50;12.68;;;5.70;99.90;;;;;;5092513;28;20047;-64
2023/03/29 06:16:25;;;;;;;26.27;13.18;;;5.70;99.90;;;;;;5092421;28;20040;-64
2023/03/29 06:18:52;;;;;;;22.75;12.25;;;5.60;99.90;;;;;;5082084;28;20115;-63
2023/03/29 06:21:17;;;;;;;23.35;13.10;;;5.60;99.90;;;;;;5076022;28;20035;-65
2023/03/29 06:23:44;;;;;;;24.42;13.27;;;5.60;99.90;;;;;;5068050;28;20044;-64
2023/03/29 06:26:09;;;;;;;23.25;13.38;;;5.60;99.90;;;;;;5052493;28;20082;-64
2023/03/29 06:28:35;;;;;;;27.02;13.57;;;5.60;99.90;;;;;;5066076;28;20037;-64
2023/03/29 06:31:03;;;;;;;29.17;13.90;;;5.60;99.90;;;;;;5065590;28;20298;-65
2023/03/29 06:33:31;;;;;;;29.77;15.05;;;5.70;99.90;;;;;;5082598;28;20184;-65
2023/03/29 06:35:57;;;;;;;23.27;13.27;;;5.70;99.90;;;;;;5065510;28;20191;-65
2023/03/29 06:38:25;;;;;;;27.55;14.68;;;5.70;99.90;;;;;;5065678;28;20048;-65
2023/03/29 06:40:58;;;;;;;26.80;14.63;;;5.70;99.90;;;;;;5066469;28;20514;-65
2023/03/29 06:43:25;;;;;;;27.25;14.18;;;5.80;99.90;;;;;;5049034;28;20079;-65
2023/03/29 06:45:50;;;;;;;25.73;13.70;;;5.80;99.90;;;;;;5065551;28;20123;-65
2023/03/29 06:48:16;;;;;;;24.25;13.70;;;5.80;99.90;;;;;;5048920;28;20159;-66
2023/03/29 06:50:42;;;;;;;28.67;15.23;;;5.90;99.90;;;;;;5099769;28;20043;-65
2023/03/29 06:53:08;;;;;;;25.98;13.93;;;5.90;99.90;;;;;;5085758;28;20713;-65
2023/03/29 06:55:34;;;;;;;25.73;14.40;;;6.00;99.90;;;;;;5060528;28;20438;-64
2023/03/29 06:58:00;;;;;;;24.83;13.38;;;6.00;99.90;;;;;;5065714;28;20508;-64
2023/03/29 07:00:29;;;;;;;28.40;14.40;;;6.10;99.90;;;;;;5047713;28;20071;-63
2023/03/29 07:02:57;;;;;;;24.40;13.18;;;6.10;99.90;;;;;;5065438;28;20079;-64
2023/03/29 07:05:26;;;;;;;23.83;13.60;;;6.10;99.90;;;;;;5060965;28;20047;-63
2023/03/29 07:07:55;;;;;;;23.35;12.07;;;6.10;99.90;;;;;;5068766;28;20040;-64
2023/03/29 07:10:37;;;;;;;28.42;14.02;;;6.10;99.90;;;;;;5076533;28;20101;-64
2023/03/29 07:13:05;;;;;;;28.00;13.93;;;6.10;99.90;;;;;;5065215;28;20148;-64
2023/03/29 07:15:32;;;;;;;25.35;13.43;;;6.10;99.90;;;;;;5071474;28;20036;-64
2023/03/29 07:17:58;;;;;;;27.65;13.95;;;6.20;99.90;;;;;;5085341;28;20048;-64
2023/03/29 07:20:25;;;;;;;24.35;12.30;;;6.20;99.90;;;;;;5071398;28;20178;-65
2023/03/29 07:22:52;;;;;;;22.70;13.13;;;6.30;99.90;;;;;;5067398;28;20506;-65
2023/03/29 07:25:20;;;;;;;23.40;13.43;;;6.30;99.90;;;;;;5076405;28;20040;-65
2023/03/29 07:27:46;;;;;;;26.33;13.57;;;6.30;99.90;;;;;;5066463;28;20048;-64
2023/03/29 07:30:23;;;;;;;22.08;13.27;;;6.30;99.90;;;;;;5047703;28;20079;-66
2023/03/29 07:32:50;;;;;;;25.92;13.13;;;6.40;99.90;;;;;;5064768;28;20403;-65
2023/03/29 07:35:17;;;;;;;22.05;12.90;;;6.40;99.90;;;;;;5063791;28;20102;-64
2023/03/29 07:37:45;;;;;;;22.17;12.60;;;6.50;99.90;;;;;;5064671;28;20087;-65
2023/03/29 07:40:17;;;;;;;21.48;12.38;;;6.60;99.90;;;;;;5047423;28;20029;-64
2023/03/29 07:42:46;;;;;;;17.75;12.10;;;6.70;99.90;;;;;;5064827;28;20049;-64
2023/03/29 07:45:15;;;;;;;21.70;12.10;;;6.70;99.90;;;;;;5067632;28;20052;-65
2023/03/29 07:47:41;;;;;;;22.27;12.27;;;6.80;99.90;;;;;;5084732;28;20046;-66
2023/03/29 07:50:08;;;;;;;25.10;11.38;;;6.80;99.90;;;;;;5070882;28;20415;-65
2023/03/29 07:52:35;;;;;;;22.83;10.35;;;6.80;99.90;;;;;;5064502;28;20071;-66
2023/03/29 07:55:01;;;;;;;21.73;10.70;;;6.80;99.90;;;;;;5063791;28;20052;-66
2023/03/29 07:57:26;;;;;;;20.00;11.27;;;6.90;99.90;;;;;;5064441;28;20499;-65
2023/03/29 07:59:53;;;;;;;20.00;10.57;;;6.90;99.90;;;;;;5063720;28;20499;-65
2023/03/29 08:02:19;;;;;;;17.80;10.07;;;6.90;99.90;;;;;;5064010;28;20036;-63
2023/03/29 08:04:45;;;;;;;18.30;10.95;;;7.00;99.90;;;;;;5054749;28;20131;-64
2023/03/29 08:07:12;;;;;;;22.13;10.55;;;7.10;99.90;;;;;;5084382;28;20134;-64
2023/03/29 08:09:38;;;;;;;18.40;10.63;;;7.10;99.90;;;;;;5063897;28;20492;-65
2023/03/29 08:12:04;;;;;;;19.95;10.82;;;7.20;99.90;;;;;;5063813;28;20040;-65
2023/03/29 08:14:30;;;;;;;19.02;10.45;;;7.20;99.90;;;;;;5064327;28;20499;-64
2023/03/29 08:16:56;;;;;;;19.83;9.95;;;7.20;99.90;;;;;;5063929;28;20102;-64
2023/03/29 08:19:22;;;;;;;19.48;10.35;;;7.30;99.90;;;;;;5063965;28;20553;-64
2023/03/29 08:21:48;;;;;;;18.88;9.77;;;7.30;99.90;;;;;;5063911;28;20079;-65
2023/03/29 08:24:13;;;;;;;19.27;10.27;;;7.30;99.90;;;;;;5063781;28;20491;-65
2023/03/29 08:26:39;;;;;;;17.52;9.60;;;7.40;99.90;;;;;;5063984;28;20040;-67
2023/03/29 08:29:07;;;;;;;25.35;10.50;;;7.40;99.90;;;;;;5063932;28;20067;-65
2023/03/29 08:31:33;;;;;;;16.85;9.68;;;7.50;99.90;;;;;;5063449;28;20349;-64
2023/03/29 08:33:59;;;;;;;16.25;9.18;;;7.70;99.90;;;;;;5063800;28;20535;-63
2023/03/29 08:36:25;;;;;;;18.08;9.70;;;7.80;99.90;;;;;;5063539;28;20438;-64
2023/03/29 08:38:51;;;;;;;17.25;9.45;;;8.00;99.90;;;;;;5063727;28;20095;-63
2023/03/29 08:41:49;;;;;;;18.20;8.93;;;8.10;99.90;;;;;;5079517;28;20052;-64
2023/03/29 08:44:15;;;;;;;15.23;8.73;;;8.20;99.90;;;;;;5067118;28;20044;-65
2023/03/29 08:46:50;;;;;;;19.00;8.80;;;8.20;99.90;;;;;;5053445;28;20455;-64
2023/03/29 08:49:18;;;;;;;19.05;9.00;;;8.30;99.90;;;;;;5072964;28;20047;-63
2023/03/29 08:51:52;;;;;;;19.25;8.88;;;8.60;99.90;;;;;;5089106;28;20090;-63
2023/03/29 08:54:26;;;;;;;17.10;8.82;;;8.80;99.90;;;;;;5053607;28;20111;-64
2023/03/29 08:56:56;;;;;;;13.98;8.65;;;9.00;99.90;;;;;;5067565;28;20533;-66
2023/03/29 08:59:28;;;;;;;19.83;8.98;;;8.90;99.90;;;;;;5067683;28;20123;-64
2023/03/29 09:01:57;;;;;;;15.55;8.98;;;8.80;99.90;;;;;;5064957;28;20066;-65
2023/03/29 09:04:30;;;;;;;17.23;8.50;;;8.80;99.90;;;;;;5068999;28;20052;-63
2023/03/29 09:06:57;;;;;;;14.70;8.63;;;9.00;99.90;;;;;;5066956;28;20098;-66
2023/03/29 09:09:28;;;;;;;17.65;9.35;;;9.30;99.90;;;;;;5050735;28;20037;-64
2023/03/29 09:12:24;;;;;;;15.57;8.70;;;9.40;99.90;;;;;;5050390;28;20051;-64
2023/03/29 09:15:03;;;;;;;14.73;8.15;;;9.30;99.90;;;;;;5050550;28;20100;-64
2023/03/29 09:17:34;;;;;;;14.10;7.85;;;9.30;99.90;;;;;;5067409;28;20132;-64
2023/03/29 09:20:22;;;;;;;17.40;8.95;;;9.20;99.90;;;;;;5050585;28;20463;-64
2023/03/29 09:22:54;;;;;;;15.90;8.82;;;9.30;99.90;;;;;;5067408;28;20048;-65
2023/03/29 09:25:33;;;;;;;15.93;8.50;;;9.50;99.90;;;;;;5078043;28;20475;-64
2023/03/29 09:28:13;;;;;;;19.13;8.60;;;9.60;99.90;;;;;;5066948;28;20041;-64
2023/03/29 09:31:09;;;;;;;15.15;9.00;;;9.70;99.90;;;;;;5050452;28;20052;-66
2023/03/29 09:33:51;;;;;;;15.93;8.77;;;9.90;99.90;;;;;;5068440;28;20103;-65
2023/03/29 09:36:22;;;;;;;16.15;8.70;;;10.10;99.90;;;;;;5066633;28;20048;-64
2023/03/29 09:38:52;;;;;;;15.13;9.10;;;10.20;99.90;;;;;;5066894;28;20045;-64
2023/03/29 09:41:40;;;;;;;16.50;8.75;;;10.30;99.90;;;;;;5066597;28;20048;-64
2023/03/29 09:44:15;;;;;;;18.95;8.00;;;10.50;99.90;;;;;;5067029;28;20045;-64
2023/03/29 09:46:44;;;;;;;16.73;8.48;;;10.50;99.90;;;;;;5066684;28;20048;-64
2023/03/29 09:49:19;;;;;;;19.08;8.98;;;10.50;99.90;;;;;;5067104;28;20585;-63
2023/03/29 09:51:48;;;;;;;17.85;9.75;;;10.40;99.90;;;;;;5066545;28;20127;-64
2023/03/29 09:54:15;;;;;;;18.25;9.15;;;10.30;99.90;;;;;;5066802;28;20048;-66
2023/03/29 09:56:41;;;;;;;17.20;9.20;;;10.20;99.90;;;;;;5066101;28;20117;-64
2023/03/29 09:59:11;;;;;;;20.48;9.45;;;10.20;99.90;;;;;;5050057;28;20356;-65
2023/03/29 10:01:40;;;;;;;20.45;9.02;;;10.10;99.90;;;;;;5066512;28;20328;-64
2023/03/29 10:04:08;;;;;;;20.40;10.07;;;10.30;99.90;;;;;;5066582;28;20043;-65
2023/03/29 10:06:35;;;;;;;19.98;10.55;;;10.40;99.90;;;;;;5065787;28;20048;-64
2023/03/29 10:09:03;;;;;;;20.02;9.88;;;10.70;99.90;;;;;;5058106;28;20491;-64
2023/03/29 10:11:34;;;;;;;19.83;9.55;;;10.80;99.90;;;;;;5066169;28;20056;-63
2023/03/29 10:14:11;;;;;;;20.80;9.55;;;10.80;99.90;;;;;;5066080;28;20041;-65
2023/03/29 10:16:44;;;;;;;16.65;9.88;;;10.70;99.90;;;;;;5066564;28;20376;-65
2023/03/29 10:19:23;;;;;;;21.73;9.13;;;10.80;99.90;;;;;;5049435;28;20056;-65
2023/03/29 10:21:53;;;;;;;16.85;9.65;;;10.80;99.90;;;;;;5066147;28;20044;-65
2023/03/29 10:24:25;;;;;;;17.83;9.43;;;10.80;99.90;;;;;;5049296;28;20080;-66
2023/03/29 10:26:54;;;;;;;18.88;9.95;;;10.90;99.90;;;;;;5049439;28;20134;-62
2023/03/29 10:29:21;;;;;;;20.20;10.20;;;10.90;99.90;;;;;;5056776;28;20075;-64
2023/03/29 10:31:48;;;;;;;17.48;9.60;;;11.00;99.90;;;;;;5079190;28;20039;-64
2023/03/29 10:34:15;;;;;;;20.33;10.15;;;10.90;99.90;;;;;;5067346;28;20499;-64
2023/03/29 10:36:45;;;;;;;21.15;11.00;;;10.90;99.90;;;;;;5065925;28;20563;-62
2023/03/29 10:39:14;;;;;;;22.15;10.63;;;10.90;99.90;;;;;;5066028;28;20066;-65
2023/03/29 10:41:40;;;;;;;20.00;10.80;;;11.00;99.90;;;;;;5065301;28;20048;-63
2023/03/29 10:44:25;;;;;;;21.52;10.95;;;11.10;99.90;;;;;;5076932;28;20048;-64
2023/03/29 10:46:51;;;;;;;;;;;11.30;99.90;;;;;;5052331;28;20468;-65
2023/03/29 10:49:22;;;;;;;23.27;10.57;;;11.40;99.90;;;;;;5048843;28;19970;-65
2023/03/29 10:51:49;;;;;;;18.63;10.43;;;11.50;99.90;;;;;;5066884;28;20535;-65
2023/03/29 10:54:20;;;;;;;20.33;10.20;;;11.60;99.90;;;;;;5048754;28;20048;-66
2023/03/29 10:57:01;;;;;;;21.00;10.85;;;11.70;99.90;;;;;;5084821;28;20052;-64
2023/03/29 10:59:36;;;;;;;16.88;10.52;;;11.80;99.90;;;;;;5086986;28;20534;-64
2023/03/29 11:02:14;;;;;;;19.90;11.10;;;11.80;99.90;;;;;;5066185;28;20297;-65
2023/03/29 11:05:15;;;;;;;22.75;10.77;;;11.70;99.90;;;;;;5073042;28;20094;-65
2023/03/29 11:07:59;;;;;;;23.02;10.88;;;11.90;99.90;;;;;;5062963;28;20052;-64
2023/03/29 11:10:39;;;;;;;19.25;10.45;;;12.30;99.90;;;;;;5064563;28;20040;-65
2023/03/29 11:13:11;;;;;;;19.00;10.40;;;12.20;99.90;;;;;;5081936;28;20043;-66
2023/03/29 11:16:03;;;;;;;16.67;10.45;;;12.30;99.90;;;;;;5083645;28;20055;-65
2023/03/29 11:18:54;;;;;;;19.85;10.40;;;12.50;99.90;;;;;;5068362;28;20063;-64
2023/03/29 11:21:26;;;;;;;19.88;10.73;;;12.60;99.90;;;;;;5081761;28;20395;-65
2023/03/29 11:24:34;;;;;;;21.15;10.65;;;12.90;99.90;;;;;;5066111;28;20106;-66
2023/03/29 11:27:14;;;;;;;19.35;9.82;;;13.30;99.90;;;;;;5064945;28;20044;-66
2023/03/29 11:29:57;;;;;;;19.00;10.77;;;13.50;99.90;;;;;;5064732;28;20048;-64
2023/03/29 11:32:52;;;;;;;15.95;10.20;;;13.80;99.90;;;;;;5064886;28;20044;-66
2023/03/29 11:35:41;;;;;;;17.48;10.57;;;14.00;99.90;;;;;;5020253;28;20059;-65
2023/03/29 11:38:12;;;;;;;17.30;10.00;;;14.30;99.90;;;;;;5070376;28;20048;-65
2023/03/29 11:41:02;;;;;;;14.73;9.52;;;13.90;99.90;;;;;;5081234;28;20045;-65
2023/03/29 11:43:42;;;;;;;17.52;10.20;;;14.00;99.90;;;;;;5065855;28;20041;-64
2023/03/29 11:46:36;;;;;;;23.13;10.88;;;14.20;99.90;;;;;;5047942;28;20258;-66
2023/03/29 11:49:20;;;;;;;18.20;10.02;;;14.20;99.90;;;;;;5049996;28;20045;-64
2023/03/29 11:51:53;;;;;;;18.58;9.77;;;14.20;99.90;;;;;;5084569;28;20039;-66
2023/03/29 11:54:33;;;;;;;16.45;9.93;;;14.00;99.90;;;;;;5067817;28;20043;-65
2023/03/29 11:57:17;;;;;;;14.48;9.48;;;14.20;99.90;;;;;;5081245;28;20519;-65
2023/03/29 12:00:14;;;;;;;19.07;9.73;;;14.20;99.90;;;;;;5047836;28;20083;-64
2023/03/29 12:02:52;;;;;;;15.93;9.68;;;13.80;99.90;;;;;;5048010;28;20044;-66
2023/03/29 12:05:23;;;;;;;15.05;9.43;;;13.80;99.90;;;;;;5056446;28;20389;-64
2023/03/29 12:08:14;;;;;;;15.48;9.63;;;13.90;99.90;;;;;;5064314;28;20082;-65
2023/03/29 12:11:05;;;;;;;16.15;10.10;;;14.10;99.90;;;;;;5047078;28;20564;-65
2023/03/29 12:13:37;;;;;;;15.40;9.80;;;14.10;99.90;;;;;;5061345;28;20483;-66
2023/03/29 12:16:34;;;;;;;20.50;10.13;;;14.00;99.90;;;;;;5075703;28;20044;-65
2023/03/29 12:19:11;;;;;;;15.07;9.48;;;14.00;99.90;;;;;;5064085;28;20044;-66
2023/03/29 12:21:41;;;;;;;14.80;9.23;;;14.00;99.90;;;;;;5063982;28;20051;-68
2023/03/29 12:24:11;;;;;;;17.40;9.48;;;14.10;99.90;;;;;;5063803;28;20074;-69
2023/03/29 12:26:54;;;;;;;14.85;8.63;;;14.20;99.90;;;;;;5047321;28;20680;-66
2023/03/29 12:29:40;;;;;;;13.32;8.40;;;14.30;99.90;;;;;;5065697;28;20118;-65
2023/03/29 12:32:37;;;;;;;16.40;8.68;;;14.50;99.90;;;;;;5063962;28;20040;-66
2023/03/29 12:35:34;;;;;;;15.75;8.90;;;14.90;99.90;;;;;;5063398;28;20578;-67
2023/03/29 12:38:26;;;;;;;14.68;9.45;;;15.10;99.90;;;;;;5065508;28;20071;-66
2023/03/29 12:40:58;;;;;;;12.30;8.00;;;15.10;99.90;;;;;;5060428;28;20186;-65
2023/03/29 12:43:36;;;;;;;12.43;8.00;;;15.10;99.90;;;;;;5047371;28;20408;-65
2023/03/29 12:46:10;;;;;;;11.75;7.50;;;15.00;99.90;;;;;;5072404;28;20044;-65
2023/03/29 12:48:39;;;;;;;12.05;7.32;;;14.80;99.90;;;;;;5067091;28;20044;-65
2023/03/29 12:51:11;;;;;;;12.82;6.97;;;14.70;99.90;;;;;;5064902;28;20041;-66
2023/03/29 12:53:49;;;;;;;15.00;8.32;;;14.50;99.90;;;;;;5063943;28;20366;-66
2023/03/29 12:56:33;;;;;;;13.13;8.02;;;14.40;99.90;;;;;;5064856;28;20088;-71
2023/03/29 12:59:16;;;;;;;15.73;8.07;;;14.40;99.90;;;;;;5065325;28;20048;-65
2023/03/29 13:01:59;;;;;;;12.13;7.65;;;14.30;99.90;;;;;;5047020;28;20044;-65
2023/03/29 13:04:52;;;;;;;13.95;8.18;;;14.20;99.90;;;;;;5063488;28;20494;-66